Time;durP1;ratioP1;P1;durP2;ratioP2;P2;SDS_P1;SDS_P2;PMS_P1;PMS_P2;Temp;Humidity;BMP_temperature;BMP_pressure;BME280_temperature;BME280_humidity;BME280_pressure;Samples;Min_cycle;Max_cycle;Signal;HPM_P1;HPM_P2
2023/07/19 00:03:52;;;;;;;7.47;6.53;;;21.30;99.90;;;;;;10274825;28;20712;-78
2023/07/19 00:08:56;;;;;;;6.67;6.13;;;21.30;99.90;;;;;;10280771;28;20280;-77
2023/07/19 00:13:58;;;;;;;6.10;5.70;;;21.40;99.90;;;;;;10282856;28;20225;-77
2023/07/19 00:19:00;;;;;;;6.20;5.60;;;21.40;99.90;;;;;;10280676;28;20206;-78
2023/07/19 00:24:03;;;;;;;7.17;6.60;;;21.50;99.90;;;;;;10281605;28;20242;-78
2023/07/19 00:29:06;;;;;;;7.20;6.63;;;21.50;99.90;;;;;;10292979;28;20677;-77
2023/07/19 00:34:08;;;;;;;7.40;6.73;;;21.50;99.90;;;;;;10289776;28;20492;-78
2023/07/19 00:39:11;;;;;;;7.20;6.60;;;21.60;99.90;;;;;;10271600;28;20269;-78
2023/07/19 00:44:13;;;;;;;7.37;6.77;;;21.60;99.90;;;;;;10279257;28;20239;-77
2023/07/19 00:49:16;;;;;;;6.90;6.30;;;21.60;99.90;;;;;;10278102;28;20207;-77
2023/07/19 00:54:20;;;;;;;7.20;6.60;;;21.60;99.90;;;;;;10277571;28;20287;-77
2023/07/19 00:59:24;;;;;;;8.47;7.10;;;21.50;99.90;;;;;;10276248;28;20273;-78
2023/07/19 01:04:27;;;;;;;7.17;6.53;;;21.50;99.90;;;;;;10273807;28;20225;-78
2023/07/19 01:09:31;;;;;;;7.23;6.57;;;21.50;99.90;;;;;;10275076;28;20212;-77
2023/07/19 01:14:34;;;;;;;8.03;7.33;;;21.50;99.90;;;;;;10271947;28;20216;-77
2023/07/19 01:19:36;;;;;;;7.63;7.00;;;21.50;99.90;;;;;;10290209;28;20212;-78
2023/07/19 01:24:41;;;;;;;7.70;7.10;;;21.50;99.90;;;;;;10289284;28;20228;-77
2023/07/19 01:29:43;;;;;;;6.90;6.30;;;21.50;99.90;;;;;;10274326;28;20216;-77
2023/07/19 01:34:45;;;;;;;7.07;6.57;;;21.60;99.90;;;;;;10272149;28;20274;-77
2023/07/19 01:39:51;;;;;;;8.20;7.40;;;21.60;99.90;;;;;;10274084;28;20766;-77
2023/07/19 01:44:55;;;;;;;7.67;6.97;;;21.50;99.90;;;;;;10286110;28;20304;-78
2023/07/19 01:49:57;;;;;;;7.73;7.23;;;21.50;99.90;;;;;;10278645;28;20644;-79
2023/07/19 01:55:00;;;;;;;7.53;6.83;;;21.50;99.90;;;;;;10303361;23;20321;-82
2023/07/19 02:00:03;;;;;;;6.80;6.20;;;21.50;99.90;;;;;;10255805;28;21001;-82
2023/07/19 02:05:18;;;;;;;10.40;7.07;;;21.40;99.90;;;;;;10254947;28;20228;-83
2023/07/19 02:10:21;;;;;;;8.87;6.60;;;21.40;99.90;;;;;;10247423;28;20629;-82
2023/07/19 02:15:23;;;;;;;7.53;6.03;;;21.40;99.90;;;;;;10251789;28;20221;-81
2023/07/19 02:20:25;;;;;;;6.83;6.23;;;21.40;99.90;;;;;;10246668;28;20594;-82
2023/07/19 02:25:29;;;;;;;6.70;6.20;;;21.40;99.90;;;;;;10255632;28;20248;-82
2023/07/19 02:30:31;;;;;;;6.20;5.67;;;21.30;99.90;;;;;;10255992;28;20280;-82
2023/07/19 02:35:33;;;;;;;6.47;5.90;;;21.30;99.90;;;;;;10255517;28;20264;-83
2023/07/19 02:40:37;;;;;;;6.53;6.03;;;21.20;99.90;;;;;;10255157;28;20716;-82
2023/07/19 02:45:39;;;;;;;6.57;6.07;;;21.10;99.90;;;;;;10253807;28;20237;-82
2023/07/19 02:50:45;;;;;;;6.57;5.97;;;21.00;99.90;;;;;;10247240;28;20395;-82
2023/07/19 02:55:49;;;;;;;5.43;4.93;;;21.00;99.90;;;;;;10257156;28;20233;-83
2023/07/19 03:00:54;;;;;;;7.13;5.63;;;21.00;99.90;;;;;;10251950;28;20727;-82
2023/07/19 03:05:56;;;;;;;6.90;5.83;;;20.90;99.90;;;;;;10250082;28;20300;-82
2023/07/19 03:10:59;;;;;;;6.57;5.97;;;20.80;99.90;;;;;;10246586;28;20219;-82
2023/07/19 03:16:01;;;;;;;5.43;5.07;;;20.80;99.90;;;;;;10242559;28;20225;-82
2023/07/19 03:21:04;;;;;;;8.13;5.70;;;20.80;99.90;;;;;;10247523;28;20208;-83
2023/07/19 03:26:07;;;;;;;6.03;5.63;;;20.70;99.90;;;;;;10265106;28;20764;-82
2023/07/19 03:31:11;;;;;;;6.03;5.50;;;20.60;99.90;;;;;;10247686;28;20232;-82
2023/07/19 03:36:14;;;;;;;4.77;4.47;;;20.60;99.90;;;;;;10254052;28;20767;-82
2023/07/19 03:41:18;;;;;;;6.43;5.80;;;20.60;99.90;;;;;;10254007;28;20287;-81
2023/07/19 03:46:20;;;;;;;6.90;5.87;;;20.50;99.90;;;;;;10250457;28;20228;-81
2023/07/19 03:51:23;;;;;;;6.33;5.67;;;20.50;99.90;;;;;;10257788;28;20221;-81
2023/07/19 03:56:26;;;;;;;7.17;5.90;;;20.50;99.90;;;;;;10269924;28;20231;-82
2023/07/19 04:01:29;;;;;;;6.20;5.70;;;20.50;99.90;;;;;;10247708;28;20693;-82
2023/07/19 04:06:31;;;;;;;6.00;5.50;;;20.50;99.90;;;;;;10235508;28;20883;-81
2023/07/19 04:11:34;;;;;;;6.17;5.67;;;20.40;99.90;;;;;;10260356;28;20215;-82
2023/07/19 04:16:37;;;;;;;7.27;5.47;;;20.40;99.90;;;;;;10259172;28;20233;-81
2023/07/19 04:21:40;;;;;;;9.10;6.20;;;20.50;99.90;;;;;;10270282;28;20283;-82
2023/07/19 04:26:44;;;;;;;6.63;5.50;;;20.50;99.90;;;;;;10250602;28;20241;-83
2023/07/19 04:31:46;;;;;;;5.20;4.80;;;20.50;99.90;;;;;;10251059;28;20295;-82
2023/07/19 04:36:49;;;;;;;5.70;4.93;;;20.60;99.90;;;;;;10267165;28;20291;-81
2023/07/19 04:41:52;;;;;;;6.10;5.60;;;20.60;99.90;;;;;;10280869;28;20205;-81
2023/07/19 04:46:55;;;;;;;6.20;5.60;;;20.60;99.90;;;;;;10265966;28;20699;-80
2023/07/19 04:51:59;;;;;;;5.87;5.40;;;20.60;99.90;;;;;;10274379;28;20279;-80
2023/07/19 04:57:03;;;;;;;6.10;4.70;;;20.70;99.90;;;;;;10244849;28;20591;-79
2023/07/19 05:02:07;;;;;;;5.90;5.40;;;20.80;99.90;;;;;;10253512;28;20223;-81
2023/07/19 05:07:09;;;;;;;5.70;5.30;;;20.80;99.90;;;;;;10267157;28;20296;-79
2023/07/19 05:12:13;;;;;;;10.00;5.20;;;20.90;99.90;;;;;;10265914;28;20193;-79
2023/07/19 05:17:15;;;;;;;8.23;5.60;;;20.90;99.90;;;;;;10284908;28;20233;-80
2023/07/19 05:22:18;;;;;;;5.60;5.10;;;21.00;99.90;;;;;;10263692;28;20235;-79
2023/07/19 05:27:21;;;;;;;5.63;5.03;;;21.00;99.90;;;;;;10258554;28;20225;-80
2023/07/19 05:32:24;;;;;;;5.70;5.20;;;21.10;99.90;;;;;;10258963;28;20234;-81
2023/07/19 05:37:26;;;;;;;5.50;5.00;;;21.10;99.90;;;;;;10264026;28;20233;-80
2023/07/19 05:42:29;;;;;;;6.43;5.83;;;21.20;99.90;;;;;;10273436;28;20329;-80
2023/07/19 05:47:31;;;;;;;5.00;4.50;;;21.30;99.90;;;;;;10259454;28;20240;-79
2023/07/19 05:52:34;;;;;;;6.00;5.50;;;21.40;99.90;;;;;;10270598;28;20194;-81
2023/07/19 05:57:37;;;;;;;5.13;4.60;;;21.50;99.90;;;;;;10268020;28;20237;-81
2023/07/19 06:02:39;;;;;;;4.80;4.40;;;21.60;99.90;;;;;;10268469;28;20256;-82
2023/07/19 06:07:41;;;;;;;5.43;5.03;;;21.60;99.90;;;;;;10267956;28;20656;-79
2023/07/19 06:12:46;;;;;;;5.00;4.50;;;21.70;99.90;;;;;;10273656;28;20229;-81
2023/07/19 06:17:48;;;;;;;6.40;5.13;;;21.90;99.90;;;;;;10257361;28;20605;-80
2023/07/19 06:22:50;;;;;;;4.50;4.10;;;22.00;99.90;;;;;;10263135;28;20233;-81
2023/07/19 06:27:53;;;;;;;5.03;4.40;;;22.10;99.90;;;;;;10264287;28;21179;-81
2023/07/19 06:32:55;;;;;;;6.00;5.50;;;22.20;99.90;;;;;;10267811;28;20235;-80
2023/07/19 06:37:57;;;;;;;6.53;4.40;;;22.40;99.90;;;;;;10261190;28;20216;-81
2023/07/19 06:43:01;;;;;;;5.33;4.83;;;22.60;99.90;;;;;;10264742;28;20224;-81
2023/07/19 06:48:03;;;;;;;4.10;3.80;;;22.90;99.90;;;;;;10262687;28;20398;-82
2023/07/19 06:53:05;;;;;;;6.40;4.73;;;23.20;99.90;;;;;;10271095;28;20209;-82
2023/07/19 06:58:08;;;;;;;4.27;3.70;;;23.50;99.90;;;;;;10270693;28;20283;-81
2023/07/19 07:03:10;;;;;;;5.53;4.80;;;23.80;99.90;;;;;;10271133;28;20511;-81
2023/07/19 07:08:12;;;;;;;4.93;4.07;;;24.10;99.90;;;;;;10266556;28;20246;-80
2023/07/19 07:13:16;;;;;;;4.30;4.00;;;24.40;99.90;;;;;;10263672;28;20684;-81
2023/07/19 07:18:18;;;;;;;6.43;4.80;;;24.70;99.90;;;;;;10265180;28;20697;-80
2023/07/19 07:23:21;;;;;;;6.17;4.70;;;25.00;99.90;;;;;;10261714;28;20225;-80
2023/07/19 07:28:24;;;;;;;4.43;4.13;;;25.20;99.90;;;;;;10261683;28;20219;-82
2023/07/19 07:33:26;;;;;;;4.97;4.50;;;25.50;99.90;;;;;;10265934;28;20205;-82
2023/07/19 07:38:28;;;;;;;4.50;3.50;;;25.80;99.90;;;;;;10267417;28;20243;-81
2023/07/19 07:43:32;;;;;;;3.77;3.17;;;26.20;97.90;;;;;;10264581;28;20225;-81
2023/07/19 07:48:34;;;;;;;3.27;2.97;;;26.60;95.80;;;;;;10257143;28;20751;-82
2023/07/19 07:53:36;;;;;;;3.03;2.80;;;26.90;95.20;;;;;;10261816;28;20221;-81
2023/07/19 07:58:40;;;;;;;3.10;2.80;;;27.40;92.30;;;;;;10374262;23;20231;-77
2023/07/19 08:03:42;;;;;;;2.70;2.47;;;27.80;90.90;;;;;;10360121;28;20231;-78
2023/07/19 08:08:44;;;;;;;9.40;2.73;;;28.30;84.30;;;;;;10318000;28;20227;-77
2023/07/19 08:13:47;;;;;;;2.40;2.20;;;28.70;81.00;;;;;;10305952;28;20270;-77
2023/07/19 08:18:49;;;;;;;4.03;2.50;;;29.20;79.60;;;;;;10318213;28;20231;-78
2023/07/19 08:23:55;;;;;;;4.07;2.40;;;29.70;76.00;;;;;;10317362;28;20235;-77
2023/07/19 08:28:59;;;;;;;2.17;2.00;;;30.10;71.10;;;;;;10316407;28;20710;-78
2023/07/19 08:34:01;;;;;;;3.73;2.40;;;30.40;67.10;;;;;;10339654;28;20204;-78
2023/07/19 08:39:04;;;;;;;2.77;2.30;;;30.70;64.40;;;;;;10314160;28;20219;-78
2023/07/19 08:44:09;;;;;;;2.60;2.40;;;30.50;60.60;;;;;;10321134;28;20322;-79
2023/07/19 08:54:29;;;;;;;2.73;1.77;;;29.60;59.70;;;;;;10772410;23;20310;-79
2023/07/19 08:59:32;;;;;;;2.37;2.17;;;29.20;62.10;;;;;;10362640;28;20741;-78
2023/07/19 09:09:55;;;;;;;2.27;2.13;;;29.00;62.40;;;;;;10381888;28;20200;-82
2023/07/19 09:14:59;;;;;;;2.97;2.20;;;29.00;62.00;;;;;;10402827;28;20291;-81
2023/07/19 09:20:01;;;;;;;3.70;2.90;;;29.10;59.90;;;;;;10386629;28;20693;-81
2023/07/19 09:25:05;;;;;;;2.50;2.33;;;29.30;59.30;;;;;;10386726;28;20745;-81
2023/07/19 09:30:12;;;;;;;2.97;2.73;;;29.40;59.60;;;;;;10380217;28;20215;-81
2023/07/19 09:35:14;;;;;;;17.67;3.33;;;29.80;57.90;;;;;;10393674;28;20212;-81
2023/07/19 09:40:16;;;;;;;3.07;2.77;;;30.00;55.40;;;;;;10398875;28;20211;-80
2023/07/19 09:45:23;;;;;;;2.33;2.10;;;30.40;56.30;;;;;;10379430;28;20587;-80
2023/07/19 09:50:27;;;;;;;2.57;2.33;;;30.90;56.70;;;;;;10385682;28;20830;-82
2023/07/19 09:55:32;;;;;;;1.93;1.83;;;31.70;55.60;;;;;;10392821;28;20306;-80
2023/07/19 10:00:36;;;;;;;2.43;2.33;;;32.50;55.80;;;;;;10392752;28;20664;-82
2023/07/19 10:05:38;;;;;;;2.63;2.50;;;33.30;53.60;;;;;;10373624;28;20226;-80
2023/07/19 10:10:42;;;;;;;3.17;2.40;;;34.30;52.20;;;;;;10389948;28;20201;-81
2023/07/19 10:15:52;;;;;;;2.88;2.17;;;35.60;50.60;;;;;;10376789;28;20245;-82
2023/07/19 10:21:01;;;;;;;4.70;2.45;;;35.80;49.20;;;;;;10401729;28;20199;-82
2023/07/19 10:26:07;;;;;;;2.70;2.50;;;36.10;49.50;;;;;;10380745;28;20246;-82
2023/07/19 10:31:12;;;;;;;2.70;2.50;;;36.10;47.10;;;;;;10400529;28;20202;-81
2023/07/19 10:36:14;;;;;;;2.70;2.37;;;35.10;48.60;;;;;;10401322;28;20234;-81
2023/07/19 10:41:19;;;;;;;2.60;2.40;;;34.00;49.80;;;;;;10390736;28;20203;-80
2023/07/19 10:46:22;;;;;;;2.60;2.40;;;33.00;50.90;;;;;;10395479;28;20226;-81
2023/07/19 10:51:25;;;;;;;2.53;2.30;;;32.30;51.90;;;;;;10378768;28;20203;-80
2023/07/19 10:56:28;;;;;;;3.07;2.30;;;31.70;53.20;;;;;;10393725;28;20234;-80
2023/07/19 11:01:33;;;;;;;4.40;2.30;;;31.20;53.00;;;;;;10379022;28;20260;-81
2023/07/19 11:06:37;;;;;;;2.33;2.13;;;30.90;53.40;;;;;;10397048;28;20235;-80
2023/07/19 11:11:40;;;;;;;3.53;3.00;;;30.60;55.40;;;;;;10394871;28;20222;-81
2023/07/19 11:16:43;;;;;;;3.07;2.87;;;30.40;55.10;;;;;;10399847;28;20200;-80
2023/07/19 11:21:45;;;;;;;4.57;2.80;;;30.20;56.00;;;;;;10374830;28;20222;-79
2023/07/19 11:26:53;;;;;;;2.73;2.53;;;30.00;56.00;;;;;;10384540;28;20231;-80
2023/07/19 11:32:13;;;;;;;3.77;2.40;;;29.90;56.30;;;;;;10392784;28;20195;-80
2023/07/19 11:37:20;;;;;;;2.50;2.30;;;29.80;54.80;;;;;;10385829;28;20230;-79
2023/07/19 11:42:43;;;;;;;2.37;2.27;;;29.80;55.40;;;;;;10372798;28;20239;-79
2023/07/19 11:47:50;;;;;;;2.67;2.47;;;29.70;55.70;;;;;;10380965;28;20219;-80
2023/07/19 11:52:56;;;;;;;2.30;2.20;;;29.80;57.60;;;;;;10387135;28;20203;-81
2023/07/19 11:58:02;;;;;;;2.57;2.37;;;29.80;56.60;;;;;;10398734;28;20674;-80
2023/07/19 12:03:06;;;;;;;3.33;3.00;;;29.90;56.60;;;;;;10402132;28;20258;-83
2023/07/19 12:08:08;;;;;;;2.83;2.63;;;29.90;56.60;;;;;;10401252;28;20254;-83
2023/07/19 12:13:10;;;;;;;9.50;2.60;;;29.90;57.50;;;;;;10385789;28;20196;-83
2023/07/19 12:18:14;;;;;;;3.10;2.90;;;29.90;56.90;;;;;;10394798;28;20223;-82
2023/07/19 12:23:16;;;;;;;2.90;2.70;;;29.60;57.30;;;;;;10395937;28;20199;-83
2023/07/19 12:28:22;;;;;;;3.50;3.20;;;29.50;57.40;;;;;;10398162;28;20215;-81
2023/07/19 12:33:25;;;;;;;3.60;3.30;;;29.40;57.80;;;;;;10358566;28;20223;-82
2023/07/19 12:38:27;;;;;;;2.87;2.67;;;29.30;57.90;;;;;;10395400;28;20223;-82
2023/07/19 12:43:30;;;;;;;3.47;3.07;;;29.20;58.90;;;;;;10387572;28;20209;-82
2023/07/19 12:48:33;;;;;;;3.57;3.20;;;29.10;59.00;;;;;;10389046;28;20246;-83
2023/07/19 12:53:35;;;;;;;5.70;2.87;;;29.10;57.10;;;;;;10390587;28;20871;-81
2023/07/19 12:58:37;;;;;;;4.37;3.47;;;29.20;57.20;;;;;;10384786;28;20219;-82
2023/07/19 13:03:41;;;;;;;5.83;3.20;;;29.30;59.30;;;;;;10395657;28;20227;-81
2023/07/19 13:08:44;;;;;;;3.97;3.73;;;29.40;57.00;;;;;;10394799;28;20250;-83
2023/07/19 13:13:46;;;;;;;4.43;3.30;;;29.40;57.70;;;;;;10398641;28;20202;-80
2023/07/19 13:18:50;;;;;;;4.80;3.43;;;29.20;57.70;;;;;;10382380;28;20210;-81
2023/07/19 13:23:53;;;;;;;4.20;3.80;;;29.20;58.10;;;;;;10376157;28;20254;-81
2023/07/19 13:28:55;;;;;;;4.30;4.00;;;29.20;58.10;;;;;;10404790;28;20274;-83
2023/07/19 13:33:58;;;;;;;4.37;4.07;;;29.20;59.60;;;;;;10404840;28;20195;-83
2023/07/19 13:39:00;;;;;;;4.27;3.97;;;29.20;59.40;;;;;;10403069;28;20211;-82
2023/07/19 13:44:02;;;;;;;4.60;4.20;;;29.20;60.60;;;;;;10402149;28;20299;-83
2023/07/19 13:49:07;;;;;;;6.33;3.47;;;29.20;61.20;;;;;;10399754;28;20221;-82
2023/07/19 13:54:09;;;;;;;4.87;3.70;;;29.20;61.60;;;;;;10399344;28;20191;-83
2023/07/19 13:59:11;;;;;;;6.03;3.93;;;29.20;59.40;;;;;;10400342;28;20250;-83
2023/07/19 14:04:15;;;;;;;4.90;4.40;;;29.10;59.10;;;;;;10397056;28;20689;-82
2023/07/19 14:09:17;;;;;;;4.00;3.70;;;29.10;59.70;;;;;;10401785;28;20655;-82
2023/07/19 14:14:19;;;;;;;8.63;3.60;;;29.20;60.20;;;;;;10402740;28;20274;-82
2023/07/19 14:19:23;;;;;;;4.70;3.00;;;29.20;60.10;;;;;;10382813;28;20246;-81
2023/07/19 14:24:26;;;;;;;3.70;3.40;;;29.20;59.80;;;;;;10398146;28;20211;-82
2023/07/19 14:29:28;;;;;;;4.27;3.60;;;29.20;59.20;;;;;;10381794;28;20654;-82
2023/07/19 14:34:31;;;;;;;5.00;3.67;;;29.10;58.10;;;;;;10400500;28;20199;-83
2023/07/19 14:39:34;;;;;;;3.67;3.37;;;29.00;58.60;;;;;;10401113;28;20226;-81
2023/07/19 14:44:36;;;;;;;5.60;3.53;;;29.10;59.00;;;;;;10400472;28;20222;-82
2023/07/19 14:49:40;;;;;;;3.33;3.13;;;29.00;58.90;;;;;;10400710;28;20211;-82
2023/07/19 14:54:42;;;;;;;3.73;3.43;;;29.00;59.30;;;;;;10382710;28;20199;-82
2023/07/19 14:59:44;;;;;;;6.20;3.00;;;29.00;58.30;;;;;;10396665;28;20222;-82
2023/07/19 15:04:48;;;;;;;3.17;2.97;;;28.90;58.40;;;;;;10398756;28;20219;-82
2023/07/19 15:09:50;;;;;;;4.20;3.80;;;28.80;61.10;;;;;;10392999;28;20203;-82
2023/07/19 15:14:52;;;;;;;3.73;3.20;;;28.70;59.60;;;;;;10392055;28;20199;-83
2023/07/19 15:19:55;;;;;;;3.40;3.10;;;28.50;59.90;;;;;;10367118;28;20206;-83
2023/07/19 15:24:57;;;;;;;3.60;3.30;;;28.50;59.80;;;;;;10390552;28;20227;-83
2023/07/19 15:30:00;;;;;;;4.77;3.10;;;28.50;59.60;;;;;;10394769;28;20230;-82
2023/07/19 15:35:04;;;;;;;3.90;3.60;;;28.40;59.20;;;;;;10398424;28;20226;-82
2023/07/19 15:40:08;;;;;;;4.00;3.60;;;28.40;58.80;;;;;;10404331;28;20199;-83
2023/07/19 15:45:11;;;;;;;3.80;3.43;;;28.40;58.10;;;;;;10397606;28;20222;-82
2023/07/19 15:50:15;;;;;;;3.40;3.00;;;28.30;59.70;;;;;;10419087;28;20226;-83
2023/07/19 15:55:18;;;;;;;3.90;3.60;;;28.30;59.90;;;;;;10418453;28;20624;-83
2023/07/19 16:00:20;;;;;;;4.80;3.70;;;28.30;58.90;;;;;;10415260;28;20219;-80
2023/07/19 16:05:24;;;;;;;4.40;3.97;;;28.20;58.80;;;;;;10398860;28;20250;-82
2023/07/19 16:10:26;;;;;;;4.43;4.00;;;28.10;59.10;;;;;;10421166;28;20194;-80
2023/07/19 16:15:28;;;;;;;3.70;3.40;;;28.10;58.00;;;;;;10404298;28;20211;-81
2023/07/19 16:20:32;;;;;;;4.40;3.70;;;28.00;59.50;;;;;;10400467;28;20206;-81
2023/07/19 16:25:35;;;;;;;4.00;3.50;;;27.90;57.90;;;;;;10399973;28;20223;-79
2023/07/19 16:30:39;;;;;;;7.07;3.80;;;27.80;58.20;;;;;;10396255;28;20215;-80
2023/07/19 16:35:44;;;;;;;3.50;3.20;;;27.70;59.70;;;;;;10368387;28;20226;-80
2023/07/19 16:40:47;;;;;;;3.33;3.13;;;27.70;57.60;;;;;;10400676;28;20187;-79
2023/07/19 16:45:49;;;;;;;3.80;3.40;;;27.60;57.40;;;;;;10381908;28;20666;-80
2023/07/19 16:50:55;;;;;;;3.13;2.93;;;27.60;57.90;;;;;;10380897;28;20199;-80
2023/07/19 16:56:01;;;;;;;3.80;3.20;;;27.50;59.00;;;;;;10399559;28;20283;-79
2023/07/19 17:01:04;;;;;;;3.43;2.80;;;27.50;58.60;;;;;;10399019;28;20226;-79
2023/07/19 17:06:08;;;;;;;3.30;3.03;;;27.50;59.00;;;;;;10398158;28;20250;-79
2023/07/19 17:11:12;;;;;;;4.10;3.70;;;27.40;59.90;;;;;;10400977;28;20636;-79
2023/07/19 17:16:15;;;;;;;3.80;3.50;;;27.30;59.40;;;;;;10394431;28;20222;-79
2023/07/19 17:21:18;;;;;;;3.90;3.30;;;27.20;59.10;;;;;;10394736;28;20199;-80
2023/07/19 17:26:20;;;;;;;3.50;3.20;;;27.20;59.90;;;;;;10390111;28;20223;-80
2023/07/19 17:31:22;;;;;;;3.10;2.90;;;27.20;60.30;;;;;;10390827;28;20211;-79
2023/07/19 17:36:26;;;;;;;7.13;3.23;;;27.10;59.90;;;;;;10396088;28;20227;-79
2023/07/19 17:41:28;;;;;;;3.73;3.43;;;27.10;59.40;;;;;;10397187;28;20199;-80
2023/07/19 17:46:31;;;;;;;3.40;3.10;;;26.90;63.00;;;;;;10399787;28;20290;-89
2023/07/19 17:51:34;;;;;;;6.50;4.00;;;26.80;66.20;;;;;;10402848;28;20227;-87
2023/07/19 17:56:37;;;;;;;3.97;3.60;;;26.50;62.90;;;;;;10396665;28;20219;-89
2023/07/19 18:01:39;;;;;;;4.00;3.53;;;26.40;64.80;;;;;;10379308;28;20172;-89
2023/07/19 18:06:43;;;;;;;3.43;3.13;;;26.30;65.10;;;;;;10403499;28;20222;-87
2023/07/19 18:11:46;;;;;;;4.50;4.00;;;26.30;66.30;;;;;;10387766;28;20195;-87
2023/07/19 18:16:48;;;;;;;4.57;3.40;;;26.30;65.40;;;;;;10419107;28;20336;-90
2023/07/19 18:21:53;;;;;;;3.27;3.00;;;26.20;65.50;;;;;;10403043;28;20175;-90
2023/07/19 18:26:56;;;;;;;3.70;3.10;;;26.20;68.60;;;;;;10410967;28;20246;-91
2023/07/19 18:31:58;;;;;;;4.73;3.50;;;26.20;66.10;;;;;;10382710;28;20238;-89
2023/07/19 18:37:03;;;;;;;3.50;3.20;;;26.20;63.80;;;;;;10402595;28;20207;-92
2023/07/19 18:42:07;;;;;;;3.50;3.27;;;26.20;66.20;;;;;;10419172;28;20234;-91
2023/07/19 18:47:10;;;;;;;3.00;2.80;;;26.00;66.30;;;;;;10368642;28;20242;-91
2023/07/19 18:52:15;;;;;;;4.37;3.83;;;26.00;65.80;;;;;;10389215;28;20879;-92
2023/07/19 18:57:18;;;;;;;4.53;3.73;;;25.90;66.10;;;;;;10418482;28;20211;-90
2023/07/19 19:02:20;;;;;;;3.03;2.83;;;25.90;66.20;;;;;;10384736;28;20199;-89
2023/07/19 19:07:24;;;;;;;3.63;3.33;;;25.80;66.30;;;;;;10384854;28;20303;-92
2023/07/19 19:12:26;;;;;;;3.50;3.30;;;25.80;67.60;;;;;;10403061;28;20263;-92
2023/07/19 19:17:28;;;;;;;10.43;9.00;;;25.70;67.00;;;;;;10417165;28;20282;-86
2023/07/19 19:22:34;;;;;;;5.20;3.40;;;25.60;67.30;;;;;;10364281;28;20206;-88
2023/07/19 19:27:36;;;;;;;5.30;3.43;;;25.60;68.90;;;;;;10360094;28;21234;-86
2023/07/19 19:32:38;;;;;;;3.27;2.33;;;25.50;67.80;;;;;;10366246;28;20599;-86
2023/07/19 19:37:42;;;;;;;3.37;3.03;;;25.50;67.80;;;;;;10346731;28;20229;-86
2023/07/19 19:42:44;;;;;;;2.83;2.57;;;25.40;68.80;;;;;;10364803;28;20195;-85
2023/07/19 19:47:47;;;;;;;3.50;2.80;;;25.30;67.70;;;;;;10347423;28;20237;-86
2023/07/19 19:52:50;;;;;;;3.80;3.27;;;25.30;66.40;;;;;;10332488;28;20222;-86
2023/07/19 19:57:52;;;;;;;4.37;3.23;;;25.30;72.30;;;;;;10327876;28;20216;-86
2023/07/19 20:02:57;;;;;;;3.13;2.80;;;25.20;67.80;;;;;;10354126;28;20207;-86
2023/07/19 20:08:01;;;;;;;2.90;2.63;;;25.10;67.30;;;;;;10362865;28;20224;-87
2023/07/19 20:13:03;;;;;;;2.57;2.37;;;25.10;66.20;;;;;;10366046;28;20952;-87
2023/07/19 20:18:05;;;;;;;2.83;2.07;;;25.10;67.90;;;;;;10360246;28;20219;-86
2023/07/19 20:23:09;;;;;;;2.67;2.47;;;25.00;68.50;;;;;;10342670;28;20211;-86
2023/07/19 20:28:11;;;;;;;7.00;2.73;;;25.10;66.70;;;;;;10378860;28;20228;-86
2023/07/19 20:33:13;;;;;;;2.00;1.90;;;25.00;66.30;;;;;;10357127;28;20291;-85
2023/07/19 20:38:16;;;;;;;3.10;2.90;;;25.00;68.60;;;;;;10354145;28;20243;-86
2023/07/19 20:43:18;;;;;;;2.90;2.70;;;25.00;67.20;;;;;;10374434;28;20206;-89
2023/07/19 20:48:21;;;;;;;2.50;2.30;;;24.90;68.00;;;;;;10370840;28;20717;-86
2023/07/19 20:53:24;;;;;;;1.90;1.80;;;24.80;66.80;;;;;;10354534;28;20217;-86
2023/07/19 20:58:26;;;;;;;2.97;2.47;;;24.80;68.80;;;;;;10358189;28;20221;-86
2023/07/19 21:03:32;;;;;;;2.47;2.27;;;24.80;69.00;;;;;;10352855;28;20215;-86
2023/07/19 21:08:35;;;;;;;2.77;2.20;;;24.70;66.90;;;;;;10354478;28;20231;-86
2023/07/19 21:13:37;;;;;;;4.40;2.43;;;24.70;67.10;;;;;;10364796;28;20246;-86
2023/07/19 21:18:39;;;;;;;4.17;2.03;;;24.70;67.10;;;;;;10354133;28;20305;-85
2023/07/19 21:23:43;;;;;;;4.50;4.00;;;24.70;65.10;;;;;;10350834;28;20208;-86
2023/07/19 21:28:45;;;;;;;2.30;2.10;;;24.60;66.50;;;;;;10349582;28;20239;-86
2023/07/19 21:33:47;;;;;;;2.13;2.03;;;24.50;65.80;;;;;;10349359;28;20211;-86
2023/07/19 21:38:50;;;;;;;4.50;2.47;;;24.50;64.70;;;;;;10351638;28;20338;-87
2023/07/19 21:43:52;;;;;;;4.70;2.10;;;24.40;66.30;;;;;;10333813;28;20581;-86
2023/07/19 21:48:55;;;;;;;2.50;2.17;;;24.40;66.20;;;;;;10329239;28;20231;-86
2023/07/19 21:53:58;;;;;;;3.13;2.30;;;24.30;66.40;;;;;;10361626;28;20207;-87
2023/07/19 21:59:00;;;;;;;5.50;1.90;;;24.30;66.80;;;;;;10333269;28;20238;-86
2023/07/19 22:04:02;;;;;;;2.00;1.90;;;24.30;65.80;;;;;;10351761;28;20261;-85
2023/07/19 22:09:08;;;;;;;2.43;2.00;;;24.20;65.10;;;;;;10363999;28;20316;-86
2023/07/19 22:14:11;;;;;;;3.20;2.03;;;24.20;65.90;;;;;;10340709;28;20211;-86
2023/07/19 22:19:14;;;;;;;6.00;2.33;;;24.10;66.90;;;;;;10350180;28;20935;-86
2023/07/19 22:24:17;;;;;;;5.50;2.30;;;24.00;67.60;;;;;;10347069;28;20237;-85
2023/07/19 22:29:20;;;;;;;2.17;2.07;;;24.00;68.30;;;;;;10350809;28;20729;-85
2023/07/19 22:34:22;;;;;;;4.90;2.30;;;23.90;67.50;;;;;;10348751;28;20368;-86
2023/07/19 22:39:25;;;;;;;2.80;2.60;;;23.90;67.00;;;;;;10347850;28;20204;-85
2023/07/19 22:44:27;;;;;;;2.70;2.20;;;23.80;70.10;;;;;;10333083;28;20207;-86
2023/07/19 22:49:29;;;;;;;6.23;2.70;;;23.80;68.50;;;;;;10345816;28;20646;-86
2023/07/19 22:54:33;;;;;;;2.30;2.20;;;23.70;68.40;;;;;;10327687;28;20231;-86
2023/07/19 22:59:35;;;;;;;3.93;2.50;;;23.70;67.80;;;;;;10364132;28;20219;-86
2023/07/19 23:04:37;;;;;;;3.33;2.60;;;23.60;68.20;;;;;;10346994;28;20242;-86
2023/07/19 23:09:40;;;;;;;4.63;3.00;;;23.60;69.80;;;;;;10365968;28;20231;-86
2023/07/19 23:14:42;;;;;;;2.93;2.73;;;23.50;70.00;;;;;;10364085;28;20208;-85
2023/07/19 23:19:46;;;;;;;2.30;2.20;;;23.50;69.30;;;;;;10360977;28;20291;-85
2023/07/19 23:24:49;;;;;;;2.70;2.50;;;23.50;69.30;;;;;;10349640;28;20214;-85
2023/07/19 23:29:53;;;;;;;4.23;2.63;;;23.50;69.50;;;;;;10349051;28;20226;-86
2023/07/19 23:34:56;;;;;;;2.60;2.40;;;23.50;70.10;;;;;;10348429;28;20653;-85
2023/07/19 23:39:59;;;;;;;2.60;2.40;;;23.40;70.00;;;;;;10349884;28;20227;-85
2023/07/19 23:45:01;;;;;;;3.00;2.67;;;23.40;69.50;;;;;;10329670;28;20258;-87
2023/07/19 23:50:03;;;;;;;3.23;3.00;;;23.40;70.50;;;;;;10346719;28;20294;-85
2023/07/19 23:55:07;;;;;;;3.00;2.70;;;23.40;69.80;;;;;;10330005;28;20719;-86
